createdAt,value
2019-03-27T00:00:52.960Z,83.06
2019-03-27T00:03:22.880Z,82.41
2019-03-27T00:05:52.464Z,82.49
2019-03-27T00:08:22.087Z,82.89
2019-03-27T00:10:52.008Z,82.53
2019-03-27T00:13:22.096Z,83.01
2019-03-27T00:15:51.674Z,83.21
2019-03-27T00:18:21.262Z,83.79
2019-03-27T00:20:51.144Z,84.26
2019-03-27T00:23:20.790Z,84.39
2019-03-27T00:25:50.774Z,84.71
2019-03-27T00:28:20.358Z,84.65
2019-03-27T00:30:50.073Z,84.89
2019-03-27T00:33:19.945Z,84.62
2019-03-27T00:35:49.614Z,84.82
2019-03-27T00:38:19.230Z,85.13
2019-03-27T00:40:48.868Z,84.52
2019-03-27T00:43:18.848Z,84.83
2019-03-27T00:45:48.449Z,84.82
2019-03-27T00:48:18.060Z,85.18
2019-03-27T00:50:47.639Z,85.38
2019-03-27T00:53:17.606Z,85.18
2019-03-27T00:55:47.189Z,85.37
2019-03-27T00:58:16.779Z,85.36
2019-03-27T01:01:08.864Z,85.25
2019-03-27T01:03:39.130Z,85.01
2019-03-27T01:06:08.982Z,85.77
2019-03-27T01:08:38.952Z,85.55
2019-03-27T01:11:09.596Z,85.40
2019-03-27T01:13:39.209Z,85.39
2019-03-27T01:16:09.514Z,85.61
2019-03-27T01:18:39.095Z,85.66
2019-03-27T01:21:09.012Z,85.34
2019-03-27T01:23:38.673Z,85.54
2019-03-27T01:26:08.270Z,86.22
2019-03-27T01:28:38.224Z,86.57
2019-03-27T01:31:08.162Z,85.79
2019-03-27T01:33:37.852Z,86.45
2019-03-27T01:36:07.866Z,86.11
2019-03-27T01:38:37.496Z,86.68
2019-03-27T01:41:07.164Z,86.55
2019-03-27T01:43:36.723Z,86.18
2019-03-27T01:46:07.030Z,86.50
2019-03-27T01:48:37.038Z,86.25
2019-03-27T01:51:07.264Z,86.57
2019-03-27T01:53:39.942Z,86.61
2019-03-27T01:56:09.542Z,86.82
2019-03-27T01:58:39.163Z,86.93
2019-03-27T02:01:08.772Z,86.72
2019-03-27T02:03:38.684Z,87.01
2019-03-27T02:06:08.654Z,87.17
2019-03-27T02:08:38.257Z,87.03
2019-03-27T02:11:07.909Z,87.56
2019-03-27T02:13:37.848Z,87.82
2019-03-27T02:16:07.908Z,87.80
2019-03-27T02:18:37.774Z,87.80
2019-03-27T02:21:07.804Z,87.33
2019-03-27T02:23:37.506Z,87.54
2019-03-27T02:26:07.117Z,87.23
2019-03-27T02:28:37.025Z,87.32
2019-03-27T02:31:06.671Z,86.93
2019-03-27T02:33:36.566Z,87.14
2019-03-27T02:36:06.633Z,86.61
2019-03-27T02:38:36.221Z,86.87
2019-03-27T02:41:05.864Z,86.95
2019-03-27T02:43:35.608Z,86.96
2019-03-27T02:46:05.573Z,86.94
2019-03-27T02:48:35.196Z,87.01
2019-03-27T02:51:04.845Z,86.66
2019-03-27T02:53:34.869Z,86.86
2019-03-27T02:56:04.448Z,86.92
2019-03-27T02:58:34.685Z,86.65
2019-03-27T03:01:04.649Z,86.54
2019-03-27T03:03:34.263Z,86.88
2019-03-27T03:06:03.894Z,87.00
2019-03-27T03:08:34.153Z,86.66
2019-03-27T03:11:04.471Z,87.54
2019-03-27T03:13:34.139Z,87.40
2019-03-27T03:16:03.933Z,87.53
2019-03-27T03:18:33.955Z,87.65
2019-03-27T03:21:03.533Z,88.22
2019-03-27T03:23:33.554Z,88.49
2019-03-27T03:26:03.169Z,88.70
2019-03-27T03:28:32.748Z,88.04
2019-03-27T03:31:02.825Z,87.97
2019-03-27T03:33:32.469Z,88.49
2019-03-27T03:36:02.122Z,88.60
2019-03-27T03:38:31.740Z,88.77
2019-03-27T03:41:02.211Z,88.74
2019-03-27T03:43:31.805Z,88.61
2019-03-27T03:46:01.385Z,88.45
2019-03-27T03:48:31.064Z,88.60
2019-03-27T03:51:01.417Z,88.46
2019-03-27T03:53:31.377Z,88.15
2019-03-27T03:56:01.662Z,88.23
2019-03-27T03:58:32.697Z,88.15
2019-03-27T04:01:02.834Z,87.91
2019-03-27T04:03:35.051Z,88.04
2019-03-27T04:06:05.052Z,87.92
2019-03-27T04:08:35.098Z,87.94
2019-03-27T04:11:04.703Z,88.00
2019-03-27T04:13:34.890Z,87.83
2019-03-27T04:16:04.453Z,87.90
2019-03-27T04:18:34.253Z,88.07
2019-03-27T04:21:03.828Z,88.21
2019-03-27T04:23:33.390Z,87.93
2019-03-27T04:26:09.788Z,87.73
2019-03-27T04:28:34.597Z,87.69
2019-03-27T04:31:04.204Z,86.98
2019-03-27T04:33:33.825Z,87.01
2019-03-27T04:36:04.054Z,87.24
2019-03-27T04:38:33.639Z,87.66
2019-03-27T04:41:03.349Z,87.80
2019-03-27T04:43:32.938Z,87.97
2019-03-27T04:46:02.635Z,87.60
2019-03-27T04:48:32.185Z,87.78
2019-03-27T04:51:02.131Z,87.89
2019-03-27T04:53:31.756Z,87.97
2019-03-27T04:56:01.652Z,88.40
2019-03-27T04:58:31.232Z,89.20
2019-03-27T05:01:00.812Z,89.18
2019-03-27T05:03:30.725Z,89.18
2019-03-27T05:06:00.324Z,89.54
2019-03-27T05:08:29.898Z,89.97
2019-03-27T05:10:59.784Z,89.93
2019-03-27T05:13:29.401Z,89.65
2019-03-27T05:15:59.052Z,89.45
2019-03-27T05:18:28.707Z,89.99
2019-03-27T05:20:58.286Z,90.03
2019-03-27T05:23:28.591Z,90.21
2019-03-27T05:25:58.131Z,90.59
2019-03-27T05:28:27.680Z,90.52
2019-03-27T05:30:57.282Z,90.37
2019-03-27T05:33:26.882Z,90.44
2019-03-27T05:35:56.839Z,90.81
2019-03-27T05:38:26.836Z,90.50
2019-03-27T05:40:56.378Z,90.75
2019-03-27T05:43:26.088Z,90.69
2019-03-27T05:45:55.730Z,90.86
2019-03-27T05:48:25.323Z,90.58
2019-03-27T05:50:55.267Z,90.31
2019-03-27T05:53:25.226Z,90.18
2019-03-27T05:55:55.626Z,90.20
2019-03-27T05:58:25.731Z,90.34
2019-03-27T06:00:55.677Z,90.29
2019-03-27T06:03:25.284Z,90.08
2019-03-27T06:05:54.928Z,89.90
2019-03-27T06:08:25.201Z,89.91
2019-03-27T06:10:55.124Z,90.06
2019-03-27T06:13:24.821Z,89.87
2019-03-27T06:15:54.359Z,89.59
2019-03-27T06:18:24.445Z,89.28
2019-03-27T06:20:54.033Z,89.18
2019-03-27T06:23:23.633Z,89.33
2019-03-27T06:25:53.258Z,89.32
2019-03-27T06:28:22.846Z,89.78
2019-03-27T06:30:52.441Z,89.60
2019-03-27T06:33:22.039Z,90.14
2019-03-27T06:35:51.632Z,90.24
2019-03-27T06:38:21.251Z,89.81
2019-03-27T06:40:50.879Z,89.28
2019-03-27T06:43:21.129Z,88.83
2019-03-27T06:45:50.714Z,88.32
2019-03-27T06:48:26.094Z,88.20
2019-03-27T06:50:51.965Z,87.88
2019-03-27T06:53:21.685Z,87.94
2019-03-27T06:55:51.261Z,87.50
2019-03-27T06:58:20.831Z,87.17
2019-03-27T07:00:50.729Z,86.72
2019-03-27T07:03:20.635Z,86.09
2019-03-27T07:05:50.575Z,86.64
2019-03-27T07:08:20.203Z,85.51
2019-03-27T07:10:49.793Z,84.87
2019-03-27T07:13:19.725Z,84.94
2019-03-27T07:15:49.321Z,84.81
2019-03-27T07:18:18.919Z,84.51
2019-03-27T07:20:48.930Z,83.82
2019-03-27T07:23:18.898Z,83.17
2019-03-27T07:25:48.791Z,82.58
2019-03-27T07:28:18.378Z,82.44
2019-03-27T07:30:48.761Z,81.28
2019-03-27T07:33:18.351Z,80.87
2019-03-27T07:35:48.256Z,81.17
2019-03-27T07:38:18.163Z,78.87
2019-03-27T07:40:47.821Z,79.63
2019-03-27T07:43:17.786Z,79.24
2019-03-27T07:45:47.423Z,78.54
2019-03-27T07:48:17.042Z,76.24
2019-03-27T07:50:48.388Z,75.63
2019-03-27T07:53:17.922Z,74.91
2019-03-27T07:55:47.519Z,74.53
2019-03-27T07:58:17.480Z,74.00
2019-03-27T08:00:48.032Z,73.96
2019-03-27T08:03:18.143Z,73.26
2019-03-27T08:05:47.868Z,72.21
2019-03-27T08:08:17.473Z,72.38
2019-03-27T08:10:49.311Z,71.86
2019-03-27T08:13:18.935Z,71.53
2019-03-27T08:15:48.540Z,71.54
2019-03-27T08:18:18.195Z,72.01
2019-03-27T08:20:48.318Z,71.59
2019-03-27T08:23:18.285Z,71.30
2019-03-27T08:25:47.913Z,70.92
2019-03-27T08:28:17.808Z,70.92
2019-03-27T08:30:47.714Z,70.34
2019-03-27T08:33:17.694Z,69.24
2019-03-27T08:35:47.345Z,69.57
2019-03-27T08:38:18.229Z,68.73
2019-03-27T08:40:47.799Z,69.77
2019-03-27T08:43:21.572Z,69.77
2019-03-27T08:45:49.542Z,70.55
2019-03-27T08:48:19.167Z,69.12
2019-03-27T08:50:49.051Z,68.22
2019-03-27T08:53:19.890Z,67.95
2019-03-27T08:55:49.811Z,67.95
2019-03-27T08:58:19.385Z,66.04
2019-03-27T09:00:50.808Z,65.29
2019-03-27T09:03:20.721Z,63.87
2019-03-27T09:05:51.072Z,62.95
2019-03-27T09:08:20.985Z,62.74
2019-03-27T09:10:51.654Z,62.41
2019-03-27T09:13:21.543Z,60.24
2019-03-27T09:15:51.437Z,60.36
2019-03-27T09:18:21.306Z,55.59
2019-03-27T09:20:50.891Z,55.49
2019-03-27T09:23:21.064Z,57.74
2019-03-27T09:25:50.628Z,57.49
2019-03-27T09:28:20.581Z,56.28
2019-03-27T09:30:50.134Z,53.20
2019-03-27T09:33:19.728Z,51.49
2019-03-27T09:35:49.560Z,47.89
2019-03-27T09:38:19.418Z,50.23
2019-03-27T09:40:49.040Z,50.42
2019-03-27T09:43:18.586Z,49.16
2019-03-27T09:45:48.507Z,46.57
2019-03-27T09:48:20.599Z,46.45
2019-03-27T09:50:50.597Z,45.84
2019-03-27T09:53:20.447Z,50.21
2019-03-27T09:55:52.673Z,47.76
2019-03-27T09:58:22.329Z,47.59
2019-03-27T10:01:04.879Z,47.39
2019-03-27T10:03:34.494Z,48.01
2019-03-27T10:06:04.048Z,46.04
2019-03-27T10:08:33.664Z,47.34
2019-03-27T10:11:03.814Z,47.92
2019-03-27T10:13:33.352Z,45.02
2019-03-27T10:16:04.354Z,40.98
2019-03-27T10:18:37.004Z,36.91
2019-03-27T10:21:06.637Z,35.65
2019-03-27T10:23:36.609Z,33.33
2019-03-27T10:26:06.183Z,33.36
2019-03-27T10:28:38.837Z,31.02
2019-03-27T10:31:08.775Z,31.08
2019-03-27T10:33:38.624Z,30.68
2019-03-27T10:36:08.474Z,32.73
2019-03-27T10:38:41.546Z,31.90
2019-03-27T10:41:09.619Z,31.78
2019-03-27T10:43:39.481Z,32.28
2019-03-27T10:46:09.065Z,30.02
2019-03-27T10:48:51.717Z,28.75
2019-03-27T10:51:13.060Z,28.43
2019-03-27T10:53:43.849Z,30.89
2019-03-27T10:56:13.446Z,29.66
2019-03-27T10:58:44.900Z,28.31
2019-03-27T11:01:14.779Z,27.68
2019-03-27T11:03:44.473Z,29.98
2019-03-27T11:06:15.147Z,28.62
2019-03-27T11:08:45.461Z,31.49
2019-03-27T11:11:15.361Z,29.42
2019-03-27T11:13:44.948Z,29.64
2019-03-27T11:16:16.469Z,31.86
2019-03-27T11:18:46.054Z,31.03
2019-03-27T11:21:15.895Z,30.79
2019-03-27T11:23:45.536Z,29.63
2019-03-27T11:26:15.469Z,29.42
2019-03-27T11:28:45.351Z,32.25
2019-03-27T11:31:14.955Z,29.94
2019-03-27T11:33:44.523Z,28.53
2019-03-27T11:36:14.159Z,30.62
2019-03-27T11:38:43.743Z,30.14
2019-03-27T11:41:13.712Z,30.93
2019-03-27T11:43:54.159Z,29.48
2019-03-27T11:46:15.053Z,31.38
2019-03-27T11:48:44.691Z,34.27
2019-03-27T11:51:15.369Z,35.42
2019-03-27T11:53:44.943Z,38.41
2019-03-27T11:56:14.558Z,38.76
2019-03-27T11:58:44.238Z,38.04
2019-03-27T12:01:13.803Z,35.99
2019-03-27T12:03:43.401Z,33.13
2019-03-27T12:06:13.003Z,33.77
2019-03-27T12:08:42.921Z,34.33
2019-03-27T12:11:12.518Z,35.04
2019-03-27T12:13:42.117Z,37.36
2019-03-27T12:16:11.654Z,40.42
2019-03-27T12:18:41.265Z,37.42
2019-03-27T12:21:10.881Z,34.18
2019-03-27T12:23:40.525Z,35.15
2019-03-27T12:26:10.087Z,34.87
2019-03-27T12:28:39.687Z,34.23
2019-03-27T12:31:09.301Z,33.07
2019-03-27T12:33:38.996Z,33.33
2019-03-27T12:36:09.235Z,34.05
2019-03-27T12:38:39.182Z,34.00
2019-03-27T12:41:09.069Z,36.54
2019-03-27T12:43:38.921Z,35.42
2019-03-27T12:46:08.509Z,37.05
2019-03-27T12:48:38.091Z,36.72
2019-03-27T12:51:13.154Z,38.16
2019-03-27T12:53:39.572Z,38.79
2019-03-27T12:56:09.151Z,40.10
2019-03-27T12:58:39.074Z,40.25
2019-03-27T13:01:08.945Z,39.28
2019-03-27T13:03:38.870Z,36.13
2019-03-27T13:06:08.421Z,38.13
2019-03-27T13:08:38.033Z,39.19
2019-03-27T13:11:07.613Z,39.44
2019-03-27T13:13:37.215Z,37.12
2019-03-27T13:16:06.817Z,39.72
2019-03-27T13:18:36.695Z,39.82
2019-03-27T13:21:06.283Z,44.56
2019-03-27T13:23:35.869Z,43.53
2019-03-27T13:26:05.525Z,45.27
2019-03-27T13:28:48.276Z,43.95
2019-03-27T13:31:07.290Z,44.83
2019-03-27T13:33:37.177Z,46.89
2019-03-27T13:36:08.533Z,47.94
2019-03-27T13:38:38.081Z,48.39
2019-03-27T13:41:07.985Z,44.19
2019-03-27T13:43:37.571Z,47.52
2019-03-27T13:46:07.159Z,45.93
2019-03-27T13:48:37.106Z,45.58
2019-03-27T13:51:06.675Z,47.15
2019-03-27T13:53:36.549Z,43.31
2019-03-27T13:56:06.113Z,44.69
2019-03-27T13:58:35.671Z,46.16
2019-03-27T14:01:08.648Z,44.49
2019-03-27T14:03:36.973Z,44.52
2019-03-27T14:06:07.158Z,44.86
2019-03-27T14:08:36.748Z,45.50
2019-03-27T14:11:06.608Z,43.88
2019-03-27T14:13:36.219Z,45.92
2019-03-27T14:16:06.063Z,46.09
2019-03-27T14:18:35.656Z,47.00
2019-03-27T14:21:05.222Z,45.96
2019-03-27T14:23:34.809Z,50.12
2019-03-27T14:26:05.491Z,47.34
2019-03-27T14:28:35.141Z,46.30
2019-03-27T14:31:05.253Z,47.37
2019-03-27T14:33:37.104Z,48.87
2019-03-27T14:36:06.991Z,46.87
2019-03-27T14:38:36.875Z,49.77
2019-03-27T14:41:06.811Z,49.47
2019-03-27T14:43:36.644Z,47.78
2019-03-27T14:46:06.816Z,48.81
2019-03-27T14:48:36.445Z,50.71
2019-03-27T14:51:06.400Z,50.77
2019-03-27T14:53:35.988Z,51.10
2019-03-27T14:56:05.913Z,51.46
2019-03-27T14:58:35.489Z,51.51
2019-03-27T15:01:05.352Z,50.35
2019-03-27T15:03:34.950Z,50.14
2019-03-27T15:06:04.935Z,48.57
2019-03-27T15:08:34.838Z,47.10
2019-03-27T15:11:04.476Z,48.76
2019-03-27T15:13:34.064Z,48.32
2019-03-27T15:16:03.647Z,49.94
2019-03-27T15:18:33.287Z,50.26
2019-03-27T15:21:02.932Z,48.64
2019-03-27T15:23:32.503Z,48.94
2019-03-27T15:26:02.111Z,48.98
2019-03-27T15:28:31.754Z,51.88
2019-03-27T15:31:01.600Z,52.08
2019-03-27T15:33:31.268Z,51.78
2019-03-27T15:36:00.863Z,52.27
2019-03-27T15:38:30.460Z,53.15
2019-03-27T15:41:00.026Z,55.07
2019-03-27T15:43:29.915Z,49.32
2019-03-27T15:45:59.787Z,54.10
2019-03-27T15:48:29.663Z,54.12
2019-03-27T15:50:59.534Z,52.92
2019-03-27T15:53:29.200Z,51.77
2019-03-27T15:55:59.177Z,50.38
2019-03-27T15:58:28.746Z,50.35
2019-03-27T16:00:58.676Z,52.96
2019-03-27T16:03:28.240Z,51.16
2019-03-27T16:05:57.866Z,56.42
2019-03-27T16:08:27.605Z,50.40
2019-03-27T16:10:57.512Z,52.54
2019-03-27T16:13:27.367Z,57.03
2019-03-27T16:15:56.944Z,52.34
2019-03-27T16:18:27.381Z,53.88
2019-03-27T16:20:57.014Z,52.96
2019-03-27T16:23:26.580Z,52.67
2019-03-27T16:25:56.252Z,53.79
2019-03-27T16:28:25.835Z,54.66
2019-03-27T16:30:55.649Z,57.38
2019-03-27T16:33:25.738Z,56.91
2019-03-27T16:35:55.323Z,55.41
2019-03-27T16:38:24.977Z,54.89
2019-03-27T16:40:54.588Z,55.65
2019-03-27T16:43:24.181Z,54.77
2019-03-27T16:45:53.874Z,54.64
2019-03-27T16:48:23.496Z,56.03
2019-03-27T16:50:53.162Z,56.25
2019-03-27T16:53:22.744Z,55.95
2019-03-27T16:55:52.322Z,55.04
2019-03-27T16:58:22.087Z,56.00
2019-03-27T17:00:51.644Z,55.43
2019-03-27T17:03:21.230Z,58.11
2019-03-27T17:05:54.283Z,57.35
2019-03-27T17:08:22.120Z,58.87
2019-03-27T17:10:51.686Z,57.90
2019-03-27T17:13:21.268Z,59.02
2019-03-27T17:15:51.185Z,58.31
2019-03-27T17:18:21.152Z,57.29
2019-03-27T17:20:50.808Z,57.26
2019-03-27T17:23:20.408Z,57.92
2019-03-27T17:25:50.099Z,58.05
2019-03-27T17:28:20.094Z,59.20
2019-03-27T17:30:49.880Z,62.29
2019-03-27T17:33:19.468Z,58.76
2019-03-27T17:35:49.384Z,60.20
2019-03-27T17:38:18.980Z,58.54
2019-03-27T17:40:48.548Z,60.33
2019-03-27T17:43:18.416Z,60.60
2019-03-27T17:45:48.019Z,60.34
2019-03-27T17:48:17.568Z,58.87
2019-03-27T17:50:47.184Z,60.23
2019-03-27T17:53:16.769Z,61.02
2019-03-27T17:55:46.661Z,60.03
2019-03-27T17:58:16.514Z,61.02
2019-03-27T18:00:48.617Z,61.01
2019-03-27T18:03:18.267Z,61.05
2019-03-27T18:05:48.057Z,61.35
2019-03-27T18:08:17.799Z,62.20
2019-03-27T18:10:47.372Z,62.53
2019-03-27T18:13:17.276Z,61.74
2019-03-27T18:15:46.866Z,63.14
2019-03-27T18:18:16.450Z,62.38
2019-03-27T18:20:46.077Z,62.88
2019-03-27T18:23:15.954Z,63.39
2019-03-27T18:25:45.602Z,64.60
2019-03-27T18:28:15.483Z,65.47
2019-03-27T18:30:45.096Z,65.79
2019-03-27T18:33:14.819Z,65.12
2019-03-27T18:35:44.638Z,64.14
2019-03-27T18:38:14.811Z,64.42
2019-03-27T18:40:46.700Z,64.75
2019-03-27T18:43:16.370Z,64.43
2019-03-27T18:45:46.016Z,65.31
2019-03-27T18:48:15.610Z,65.72
2019-03-27T18:50:46.456Z,65.34
2019-03-27T18:53:15.996Z,66.71
2019-03-27T18:55:45.642Z,68.21
2019-03-27T18:58:15.259Z,65.70
2019-03-27T19:00:45.641Z,67.32
2019-03-27T19:03:15.247Z,66.89
2019-03-27T19:05:45.222Z,68.21
2019-03-27T19:08:14.771Z,66.30
2019-03-27T19:10:44.577Z,65.43
2019-03-27T19:13:14.176Z,65.67
2019-03-27T19:15:44.090Z,64.76
2019-03-27T19:18:13.739Z,65.61
2019-03-27T19:20:43.311Z,66.30
2019-03-27T19:23:12.951Z,65.59
2019-03-27T19:25:42.512Z,65.59
2019-03-27T19:28:12.134Z,66.50
2019-03-27T19:30:41.724Z,66.50
2019-03-27T19:33:11.414Z,64.62
2019-03-27T19:35:41.356Z,66.46
2019-03-27T19:38:11.256Z,66.46
2019-03-27T19:40:41.146Z,66.87
2019-03-27T19:43:10.786Z,66.03
2019-03-27T19:45:40.371Z,66.21
2019-03-27T19:48:11.493Z,66.21
2019-03-27T19:50:41.095Z,65.96
2019-03-27T19:53:10.756Z,66.70
2019-03-27T19:55:40.387Z,68.80
2019-03-27T19:58:10.110Z,67.00
2019-03-27T20:00:39.777Z,67.28
2019-03-27T20:03:09.338Z,68.08
2019-03-27T20:05:39.221Z,68.08
2019-03-27T20:08:08.855Z,68.06
2019-03-27T20:10:38.430Z,67.40
2019-03-27T20:13:08.327Z,67.82
2019-03-27T20:15:37.948Z,68.36
2019-03-27T20:18:08.186Z,69.05
2019-03-27T20:20:38.119Z,67.97
2019-03-27T20:23:14.944Z,68.20
2019-03-27T20:25:39.424Z,69.15
2019-03-27T20:28:09.080Z,68.69
2019-03-27T20:30:38.656Z,67.23
2019-03-27T20:33:08.839Z,67.91
2019-03-27T20:35:38.458Z,68.32
2019-03-27T20:38:08.494Z,68.11
2019-03-27T20:40:38.094Z,68.40
2019-03-27T20:43:07.760Z,69.29
2019-03-27T20:45:37.365Z,69.69
2019-03-27T20:48:09.581Z,69.57
2019-03-27T20:50:39.614Z,70.22
2019-03-27T20:53:09.268Z,69.52
2019-03-27T20:55:39.255Z,69.70
2019-03-27T20:58:08.996Z,70.12
2019-03-27T21:00:38.650Z,70.67
2019-03-27T21:03:08.384Z,70.42
2019-03-27T21:05:38.517Z,69.42
2019-03-27T21:08:08.593Z,69.27
2019-03-27T21:10:38.191Z,70.40
2019-03-27T21:13:08.096Z,70.04
2019-03-27T21:15:38.827Z,70.17
2019-03-27T21:18:11.053Z,70.50
2019-03-27T21:20:40.990Z,71.32
2019-03-27T21:23:10.599Z,71.10
2019-03-27T21:25:40.937Z,71.33
2019-03-27T21:28:10.614Z,72.05
2019-03-27T21:30:40.224Z,71.08
2019-03-27T21:33:10.537Z,70.83
2019-03-27T21:35:40.450Z,71.36
2019-03-27T21:38:10.398Z,71.22
2019-03-27T21:40:40.052Z,71.75
2019-03-27T21:43:10.076Z,71.41
2019-03-27T21:45:39.681Z,72.38
2019-03-27T21:48:09.363Z,72.29
2019-03-27T21:50:38.991Z,72.13
2019-03-27T21:53:08.712Z,72.33
2019-03-27T21:55:42.892Z,73.31
2019-03-27T21:58:10.217Z,73.00
2019-03-27T22:00:40.807Z,73.21
2019-03-27T22:03:10.741Z,73.29
2019-03-27T22:05:40.405Z,73.69
2019-03-27T22:08:10.555Z,73.99
2019-03-27T22:10:40.220Z,72.96
2019-03-27T22:13:10.375Z,71.82
2019-03-27T22:15:40.001Z,72.39
2019-03-27T22:18:10.184Z,73.96
2019-03-27T22:20:39.963Z,74.73
2019-03-27T22:23:10.155Z,73.88
2019-03-27T22:25:39.757Z,74.66
2019-03-27T22:28:09.420Z,75.34
2019-03-27T22:30:39.162Z,74.37
2019-03-27T22:33:09.184Z,75.58
2019-03-27T22:35:38.854Z,75.45
2019-03-27T22:38:08.641Z,74.94
2019-03-27T22:40:39.020Z,75.45
2019-03-27T22:43:08.644Z,76.04
2019-03-27T22:45:38.285Z,76.11
2019-03-27T22:48:08.688Z,76.14
2019-03-27T22:50:38.342Z,75.89
2019-03-27T22:53:08.215Z,75.81
2019-03-27T22:55:48.884Z,75.45
2019-03-27T22:58:09.237Z,75.79
2019-03-27T23:00:45.940Z,75.35
2019-03-27T23:03:18.587Z,75.18
2019-03-27T23:05:47.940Z,76.38
2019-03-27T23:08:17.620Z,74.81
2019-03-27T23:10:47.641Z,74.78
2019-03-27T23:13:17.321Z,74.85
2019-03-27T23:15:47.201Z,75.99
2019-03-27T23:18:16.845Z,75.81
2019-03-27T23:20:47.165Z,75.37
2019-03-27T23:23:17.214Z,76.31
2019-03-27T23:25:46.925Z,76.79
2019-03-27T23:28:16.698Z,76.89
2019-03-27T23:30:46.656Z,76.23
2019-03-27T23:33:16.305Z,76.90
2019-03-27T23:35:46.304Z,77.55
2019-03-27T23:38:15.932Z,76.71
2019-03-27T23:40:45.935Z,76.85
2019-03-27T23:43:15.538Z,75.89
2019-03-27T23:45:45.214Z,76.17
2019-03-27T23:48:15.407Z,76.50
2019-03-27T23:50:45.886Z,76.61
2019-03-27T23:53:15.591Z,77.46
2019-03-27T23:55:45.287Z,76.47
2019-03-27T23:58:15.305Z,77.41
